Angara A148 at Irkutsk on Jun 17th 2015, burst two main tyres on landing

Last Update: June 19, 2015 / 19:20:09 GMT/Zulu time

Bookmark this article
Incident Facts

Date of incident
Jun 17, 2015

Classification
Incident

Flight number
2G-9416

Destination
Irkutsk, Russia

Aircraft Registration
RA-61714

Aircraft Type
Antonov An-148

ICAO Type Designator
A148

Airport ICAO Code
UIII

An Angara Airlines Antonov AN-148-100, registration RA-61714 performing flight 2G-9416 from Talakan to Irkutsk (Russia), landed on Irkutsk's runway 12 at 18:13L (10:13Z) but burst both right main gear tyres. The aircraft came to a safe stop on the runway, there were no injuries, the runway and aircraft received minor damage.

Metars:
UIII 171230Z 19004MPS CAVOK 22/03 Q1014 R30/CLRD60 NOSIG RMK QFE716/0955
UIII 171200Z 18004MPS CAVOK 22/04 Q1014 R12/CLRD60 NOSIG RMK QFE718/0957
UIII 171130Z 18005MPS CAVOK 24/03 Q1013 R12/CLRD60 NOSIG RMK QFE717/0957
UIII 171100Z 17005MPS CAVOK 27/01 Q1013 R12/CLRD60 NOSIG RMK QFE717/0956
UIII 171030Z 17005MPS CAVOK 27/02 Q1013 R12/CLRD60 NOSIG RMK QFE717/0956
UIII 171000Z 17005MPS CAVOK 28/01 Q1012 R12/CLRD60 NOSIG RMK QFE717/0956
UIII 170930Z 18005MPS CAVOK 28/M01 Q1012 R12/CLRD60 NOSIG RMK QFE717/0956
UIII 170900Z 17005MPS CAVOK 29/M00 Q1012 R12/CLRD60 NOSIG RMK QFE717/0956
UIII 170830Z 17004MPS CAVOK 29/01 Q1012 R12/CLRD60 NOSIG RMK QFE717/0956
UIII 170800Z 17005MPS CAVOK 29/02 Q1012 R12/CLRD60 NOSIG RMK QFE717/0956
UIII 170730Z 18005MPS CAVOK 28/01 Q1013 R12/CLRD60 NOSIG RMK QFE717/0956
UIII 170700Z 17005MPS CAVOK 28/M01 Q1013 R12/CLRD60 NOSIG RMK QFE717/0956
Incident Facts

Date of incident
Jun 17, 2015

Classification
Incident

Flight number
2G-9416

Destination
Irkutsk, Russia

Aircraft Registration
RA-61714

Aircraft Type
Antonov An-148

ICAO Type Designator
A148

Airport ICAO Code
UIII

This article is published under license from Avherald.com. © of text by Avherald.com.
Article source

You can read 4 more free articles without a subscription.

Subscribe now and continue reading without any limits!

Are you a subscriber?
Login
Subscribe

Read unlimited articles and receive our daily update briefing. Gain better insights into what is happening in commercial aviation safety.

Free newsletter

Want to know more and stay ahead? Get our free weekly newsletter and join 4944 existing subscribers.

By subscribing, you accept our terms and conditions and confirm that you've read our privacy policy.

Send tip

Support AeroInside by sending a small tip amount.

Related articles

Newest articles

Subscribe today

Are you researching aviation incidents? Get access to AeroInside Insights, unlimited read access and receive the daily newsletter.

Pick your plan and subscribe

Partner

Blockaviation logo

A new way to document and demonstrate airworthiness compliance and aircraft value. Find out more.

Virtual Speech logo

ELITE Simulation Solutions is a leading global provider of Flight Simulation Training Devices, IFR training software as well as flight controls and related services. Find out more.

Get updates

Never miss an article from AeroInside. Subscribe to our free weekly newsletter and join 4944 existing subscribers.

By subscribing, you accept our terms and conditions and that you've read our privacy policy.

AeroInside Blog
Popular aircraft
Airbus A320
Boeing 737-800
Boeing 737-800 MAX
Popular airlines
American Airlines
United
Delta
Air Canada
Lufthansa
British Airways